createdAt,value
2018-12-13T00:01:13.547Z,23.00
2018-12-13T00:04:11.246Z,23.00
2018-12-13T00:07:07.352Z,22.90
2018-12-13T00:10:03.605Z,22.90
2018-12-13T00:13:01.547Z,22.90
2018-12-13T00:15:59.222Z,22.90
2018-12-13T00:19:01.940Z,22.80
2018-12-13T00:21:59.105Z,22.90
2018-12-13T00:24:55.700Z,22.80
2018-12-13T00:27:52.165Z,22.80
2018-12-13T00:30:48.450Z,22.80
2018-12-13T00:33:45.301Z,22.70
2018-12-13T00:36:41.490Z,22.70
2018-12-13T00:39:38.125Z,22.70
2018-12-13T00:42:43.798Z,22.70
2018-12-13T00:45:40.870Z,22.70
2018-12-13T00:48:37.529Z,22.70
2018-12-13T00:51:33.684Z,22.60
2018-12-13T00:54:30.129Z,22.60
2018-12-13T00:57:25.987Z,22.60
2018-12-13T01:00:22.109Z,22.60
2018-12-13T01:03:18.113Z,22.60
2018-12-13T01:06:17.051Z,22.60
2018-12-13T01:09:14.071Z,22.60
2018-12-13T01:12:11.073Z,22.70
2018-12-13T01:15:07.892Z,22.70
2018-12-13T01:18:04.702Z,22.70
2018-12-13T01:21:01.511Z,22.70
2018-12-13T01:23:58.742Z,22.70
2018-12-13T01:26:55.315Z,22.70
2018-12-13T01:29:53.022Z,22.60
2018-12-13T01:32:49.760Z,22.60
2018-12-13T01:35:46.337Z,22.60
2018-12-13T01:38:43.269Z,22.60
2018-12-13T01:41:39.907Z,22.60
2018-12-13T01:44:35.426Z,22.60
2018-12-13T01:47:31.569Z,22.60
2018-12-13T01:50:27.672Z,22.50
2018-12-13T01:53:24.402Z,22.50
2018-12-13T01:56:20.290Z,22.50
2018-12-13T01:59:17.082Z,22.50
2018-12-13T02:02:13.644Z,22.50
2018-12-13T02:05:10.510Z,22.50
2018-12-13T02:08:06.664Z,22.50
2018-12-13T02:11:02.924Z,22.50
2018-12-13T02:13:59.403Z,22.50
2018-12-13T02:16:55.572Z,22.50
2018-12-13T02:19:52.274Z,22.50
2018-12-13T02:22:49.409Z,22.50
2018-12-13T02:25:51.869Z,22.60
2018-12-13T02:28:48.901Z,22.60
2018-12-13T02:31:45.650Z,22.60
2018-12-13T02:34:42.027Z,22.60
2018-12-13T02:37:38.231Z,22.60
2018-12-13T02:40:35.484Z,22.60
2018-12-13T02:43:32.149Z,22.60
2018-12-13T02:46:28.354Z,22.60
2018-12-13T02:49:24.832Z,22.60
2018-12-13T02:52:22.686Z,22.60
2018-12-13T02:55:18.741Z,22.60
2018-12-13T02:58:15.161Z,22.60
2018-12-13T03:01:11.752Z,22.60
2018-12-13T03:04:07.923Z,22.60
2018-12-13T03:07:04.280Z,22.60
2018-12-13T03:10:00.796Z,22.60
2018-12-13T03:12:59.702Z,22.60
2018-12-13T03:15:56.707Z,22.60
2018-12-13T03:18:53.552Z,22.60
2018-12-13T03:21:50.691Z,22.60
2018-12-13T03:24:47.341Z,22.60
2018-12-13T03:27:43.652Z,22.60
2018-12-13T03:30:41.253Z,22.60
2018-12-13T03:33:38.364Z,22.60
2018-12-13T03:36:35.276Z,22.60
2018-12-13T03:39:32.282Z,22.70
2018-12-13T03:42:28.012Z,22.70
2018-12-13T03:45:23.736Z,22.80
2018-12-13T03:48:21.877Z,22.80
2018-12-13T03:51:18.636Z,22.80
2018-12-13T03:54:15.176Z,22.80
2018-12-13T03:57:11.840Z,22.80
2018-12-13T04:00:08.601Z,22.80
2018-12-13T04:03:05.553Z,22.80
2018-12-13T04:06:02.265Z,22.80
2018-12-13T04:09:02.692Z,22.80
2018-12-13T04:11:56.033Z,22.80
2018-12-13T04:14:52.322Z,22.80
2018-12-13T04:17:49.097Z,22.80
2018-12-13T04:20:46.020Z,22.90
2018-12-13T04:23:42.821Z,22.90
2018-12-13T04:26:39.900Z,22.90
2018-12-13T04:29:36.868Z,22.90
2018-12-13T04:32:34.155Z,22.90
2018-12-13T04:35:31.194Z,23.00
2018-12-13T04:38:28.078Z,23.00
2018-12-13T04:41:24.649Z,23.00
2018-12-13T04:44:20.230Z,23.00
2018-12-13T04:47:16.998Z,23.00
2018-12-13T04:50:14.045Z,23.10
2018-12-13T04:53:10.481Z,23.10
2018-12-13T05:19:35.318Z,23.60
2018-12-13T05:22:35.914Z,23.60
2018-12-13T05:25:38.424Z,23.70
2018-12-13T05:28:38.248Z,23.70
2018-12-13T05:31:45.431Z,23.70
2018-12-13T05:34:52.525Z,23.80
2018-12-13T05:37:58.639Z,23.80
2018-12-13T05:40:57.241Z,23.90
2018-12-13T05:44:00.158Z,23.90
2018-12-13T05:47:38.907Z,24.00
2018-12-13T05:50:40.449Z,24.00
2018-12-13T05:53:39.078Z,24.10
2018-12-13T05:56:52.223Z,24.10
2018-12-13T05:59:55.534Z,24.20
2018-12-13T06:03:12.922Z,24.20
2018-12-13T06:06:15.342Z,24.20
2018-12-13T06:09:15.700Z,24.30
2018-12-13T06:12:11.926Z,24.40
2018-12-13T06:15:09.026Z,24.40
2018-12-13T06:18:07.127Z,24.50
2018-12-13T06:21:04.678Z,24.50
2018-12-13T06:24:04.610Z,24.60
2018-12-13T06:27:04.934Z,24.60
2018-12-13T06:30:07.260Z,24.70
2018-12-13T06:32:58.422Z,24.70
2018-12-13T06:35:55.706Z,24.70
2018-12-13T06:38:56.593Z,24.70
2018-12-13T06:41:54.621Z,24.80
2018-12-13T06:44:57.114Z,24.90
2018-12-13T06:47:55.796Z,24.90
2018-12-13T06:52:13.455Z,24.90
2018-12-13T06:54:56.434Z,24.90
2018-12-13T06:57:54.585Z,24.90
2018-12-13T07:01:04.714Z,25.00
2018-12-13T07:04:05.026Z,25.00
2018-12-13T07:07:05.500Z,25.00
2018-12-13T07:10:02.916Z,25.00
2018-12-13T07:12:59.698Z,25.10
2018-12-13T07:15:58.652Z,25.10
2018-12-13T07:18:58.796Z,25.20
2018-12-13T07:22:14.509Z,25.20
2018-12-13T07:25:13.521Z,25.20
2018-12-13T07:28:11.878Z,25.30
2018-12-13T07:31:09.906Z,25.30
2018-12-13T07:34:17.455Z,25.40
2018-12-13T07:38:01.249Z,25.50
2018-12-13T07:41:55.918Z,25.50
2018-12-13T07:52:27.515Z,25.60
2018-12-13T07:55:25.855Z,25.60
2018-12-13T07:58:22.470Z,25.70
2018-12-13T08:01:19.784Z,25.70
2018-12-13T08:04:16.062Z,25.70
2018-12-13T08:07:18.338Z,25.80
2018-12-13T08:12:02.895Z,25.80
2018-12-13T08:14:49.109Z,25.80
2018-12-13T08:17:46.762Z,25.90
2018-12-13T08:20:46.012Z,26.00
2018-12-13T08:24:13.881Z,26.00
2018-12-13T08:27:23.459Z,26.00
2018-12-13T08:30:36.245Z,26.00
2018-12-13T08:33:47.793Z,26.10
2018-12-13T08:43:15.569Z,26.20
2018-12-13T08:45:12.910Z,26.20
2018-12-13T08:48:43.494Z,26.20
2018-12-13T08:51:44.307Z,26.30
2018-12-13T08:54:42.908Z,26.30
2018-12-13T08:57:53.782Z,26.30
2018-12-13T09:00:53.960Z,26.30
2018-12-13T09:03:50.523Z,26.30
2018-12-13T09:06:47.622Z,26.40
2018-12-13T09:09:44.297Z,26.40
2018-12-13T09:12:40.986Z,26.40
2018-12-13T09:15:37.728Z,26.40
2018-12-13T09:18:40.143Z,26.40
2018-12-13T09:25:23.500Z,26.40
2018-12-13T09:33:13.195Z,26.40
2018-12-13T09:36:21.659Z,26.40
2018-12-13T09:39:00.950Z,26.40
2018-12-13T09:41:57.433Z,26.40
2018-12-13T09:44:57.287Z,26.40
2018-12-13T09:47:56.420Z,26.40
2018-12-13T09:50:53.550Z,26.50
2018-12-13T09:53:52.842Z,26.50
2018-12-13T09:56:51.255Z,26.50
2018-12-13T09:59:53.527Z,26.50
2018-12-13T10:02:56.949Z,26.50
2018-12-13T10:05:54.496Z,26.50
2018-12-13T10:09:00.127Z,26.60
2018-12-13T10:12:03.158Z,26.60
2018-12-13T10:15:00.943Z,26.60
2018-12-13T10:18:09.483Z,26.60
2018-12-13T10:24:19.942Z,26.60
2018-12-13T10:27:17.742Z,26.60
2018-12-13T10:30:25.964Z,26.50
2018-12-13T10:33:25.131Z,26.50
2018-12-13T10:36:45.471Z,26.50
2018-12-13T10:39:54.001Z,26.50
2018-12-13T10:42:55.488Z,26.50
2018-12-13T10:46:00.414Z,26.40
2018-12-13T10:49:02.991Z,26.40
2018-12-13T10:52:00.948Z,26.40
2018-12-13T10:54:59.302Z,26.40
2018-12-13T10:58:01.233Z,26.40
2018-12-13T11:01:10.914Z,26.40
2018-12-13T11:04:08.683Z,26.40
2018-12-13T11:07:09.858Z,26.30
2018-12-13T11:10:28.656Z,26.30
2018-12-13T11:13:44.883Z,26.30
2018-12-13T11:17:17.666Z,26.30
2018-12-13T11:20:25.875Z,26.20
2018-12-13T11:26:50.641Z,26.20
2018-12-13T11:33:32.102Z,26.10
2018-12-13T11:36:42.190Z,26.00
2018-12-13T11:39:42.035Z,26.00
2018-12-13T11:42:40.256Z,26.00
2018-12-13T11:45:36.854Z,26.00
2018-12-13T11:48:34.050Z,26.00
2018-12-13T11:51:34.687Z,26.00
2018-12-13T11:54:58.657Z,25.90
2018-12-13T11:57:55.715Z,25.90
2018-12-13T12:00:52.686Z,25.90
2018-12-13T12:03:51.050Z,25.80
2018-12-13T12:06:50.246Z,25.80
2018-12-13T12:09:47.195Z,25.70
2018-12-13T12:12:44.150Z,25.70
2018-12-13T12:15:41.115Z,25.60
2018-12-13T12:18:39.801Z,25.60
2018-12-13T12:21:39.758Z,25.60
2018-12-13T12:24:39.472Z,25.60
2018-12-13T12:27:37.397Z,25.50
2018-12-13T12:30:37.239Z,25.50
2018-12-13T12:33:33.424Z,25.40
2018-12-13T12:36:32.068Z,25.40
2018-12-13T12:39:28.035Z,25.40
2018-12-13T12:42:24.941Z,25.40
2018-12-13T12:45:26.968Z,25.30
2018-12-13T12:48:23.295Z,25.30
2018-12-13T12:51:20.241Z,25.30
2018-12-13T12:55:09.129Z,25.20
2018-12-13T12:58:04.643Z,25.30
2018-12-13T13:01:01.533Z,25.20
2018-12-13T13:04:05.271Z,25.20
2018-12-13T13:07:05.123Z,25.20
2018-12-13T13:09:59.402Z,25.30
2018-12-13T13:12:56.527Z,25.30
2018-12-13T13:15:53.740Z,25.30
2018-12-13T13:18:50.636Z,25.20
2018-12-13T13:21:46.965Z,25.30
2018-12-13T13:24:43.038Z,25.20
2018-12-13T13:27:39.751Z,25.20
2018-12-13T13:30:39.165Z,25.20
2018-12-13T13:33:36.403Z,25.10
2018-12-13T13:36:33.558Z,25.10
2018-12-13T13:39:31.682Z,25.10
2018-12-13T13:42:29.186Z,25.00
2018-12-13T13:45:39.065Z,25.00
2018-12-13T13:48:32.898Z,25.00
2018-12-13T13:51:28.741Z,24.90
2018-12-13T13:54:24.847Z,24.90
2018-12-13T13:57:21.203Z,24.90
2018-12-13T14:00:18.048Z,24.90
2018-12-13T14:03:14.582Z,24.90
2018-12-13T14:06:11.323Z,24.90
2018-12-13T14:09:08.219Z,24.80
2018-12-13T14:12:04.456Z,24.80
2018-12-13T14:15:00.708Z,24.80
2018-12-13T14:17:57.547Z,24.80
2018-12-13T14:20:53.779Z,24.80
2018-12-13T14:23:50.520Z,24.70
2018-12-13T14:26:46.994Z,24.80
2018-12-13T14:29:43.117Z,24.80
2018-12-13T14:32:39.651Z,24.80
2018-12-13T14:35:35.870Z,24.90
2018-12-13T14:38:32.527Z,24.90
2018-12-13T14:41:29.737Z,24.90
2018-12-13T14:44:33.801Z,24.90
2018-12-13T14:47:30.892Z,24.90
2018-12-13T14:50:27.603Z,24.80
2018-12-13T14:53:24.347Z,24.80
2018-12-13T14:56:20.681Z,24.70
2018-12-13T14:59:16.618Z,24.70
2018-12-13T15:02:12.849Z,24.70
2018-12-13T15:05:09.762Z,24.70
2018-12-13T15:08:06.108Z,24.60
2018-12-13T15:11:01.939Z,24.60
2018-12-13T15:13:58.314Z,24.60
2018-12-13T15:16:54.245Z,24.60
2018-12-13T15:19:50.612Z,24.50
2018-12-13T15:22:46.898Z,24.50
2018-12-13T15:25:43.814Z,24.50
2018-12-13T15:28:40.360Z,24.50
2018-12-13T15:31:37.216Z,24.50
2018-12-13T15:34:33.840Z,24.50
2018-12-13T15:37:30.173Z,24.40
2018-12-13T15:40:27.539Z,24.40
2018-12-13T15:43:24.095Z,24.40
2018-12-13T15:46:24.134Z,24.40
2018-12-13T15:49:17.863Z,24.40
2018-12-13T15:52:14.280Z,24.40
2018-12-13T15:55:10.993Z,24.40
2018-12-13T15:58:07.500Z,24.50
2018-12-13T16:01:03.332Z,24.50
2018-12-13T16:03:59.573Z,24.50
2018-12-13T16:06:56.051Z,24.50
2018-12-13T16:09:52.456Z,24.40
2018-12-13T16:12:48.901Z,24.40
2018-12-13T16:15:45.597Z,24.40
2018-12-13T16:18:42.405Z,24.30
2018-12-13T16:21:38.931Z,24.30
2018-12-13T16:24:39.398Z,24.30
2018-12-13T16:27:32.940Z,24.20
2018-12-13T16:30:29.953Z,24.20
2018-12-13T16:33:27.069Z,24.20
2018-12-13T16:36:23.554Z,24.10
2018-12-13T16:39:20.087Z,24.10
2018-12-13T16:42:17.334Z,24.10
2018-12-13T16:45:14.558Z,24.10
2018-12-13T16:48:11.055Z,24.10
2018-12-13T16:51:07.400Z,24.00
2018-12-13T16:54:04.289Z,24.00
2018-12-13T16:57:01.332Z,24.00
2018-12-13T16:59:57.778Z,24.00
2018-12-13T17:02:54.078Z,24.00
2018-12-13T17:05:51.055Z,24.00
2018-12-13T17:08:47.792Z,24.00
2018-12-13T17:11:44.242Z,24.00
2018-12-13T17:14:41.113Z,24.10
2018-12-13T17:17:39.970Z,24.10
2018-12-13T17:20:36.308Z,24.10
2018-12-13T17:23:32.602Z,24.10
2018-12-13T17:26:29.491Z,24.10
2018-12-13T17:29:25.741Z,24.10
2018-12-13T17:32:22.148Z,24.00
2018-12-13T17:35:18.215Z,24.00
2018-12-13T17:38:14.463Z,24.00
2018-12-13T17:41:11.053Z,23.90
2018-12-13T17:44:07.383Z,23.90
2018-12-13T17:47:03.666Z,23.90
2018-12-13T17:50:00.746Z,23.80
2018-12-13T17:52:57.136Z,23.80
2018-12-13T17:55:53.353Z,23.80
2018-12-13T17:58:50.903Z,23.80
2018-12-13T18:01:47.459Z,23.70
2018-12-13T18:04:43.322Z,23.70
2018-12-13T18:07:39.343Z,23.70
2018-12-13T18:10:35.079Z,23.70
2018-12-13T18:13:31.061Z,23.70
2018-12-13T18:16:27.101Z,23.60
2018-12-13T18:19:23.301Z,23.60
2018-12-13T18:22:19.023Z,23.60
2018-12-13T18:25:18.619Z,23.60
2018-12-13T18:28:15.061Z,23.60
2018-12-13T18:31:10.998Z,23.60
2018-12-13T18:34:06.915Z,23.70
2018-12-13T18:37:03.802Z,23.70
2018-12-13T18:39:59.571Z,23.70
2018-12-13T18:42:55.947Z,23.70
2018-12-13T18:45:52.510Z,23.70
2018-12-13T18:48:50.354Z,23.70
2018-12-13T18:51:47.391Z,23.70
2018-12-13T18:54:44.100Z,23.60
2018-12-13T18:57:40.482Z,23.60
2018-12-13T19:00:37.391Z,23.60
2018-12-13T19:03:33.935Z,23.60
2018-12-13T19:06:30.382Z,23.60
2018-12-13T19:09:27.311Z,23.60
2018-12-13T19:12:23.294Z,23.50
2018-12-13T19:15:19.573Z,23.50
2018-12-13T19:18:15.620Z,23.50
2018-12-13T19:21:12.040Z,23.50
2018-12-13T19:24:10.841Z,23.40
2018-12-13T19:27:07.036Z,23.40
2018-12-13T19:30:06.208Z,23.40
2018-12-13T19:32:59.730Z,23.30
2018-12-13T19:35:56.168Z,23.30
2018-12-13T19:38:55.169Z,23.30
2018-12-13T19:41:51.503Z,23.20
2018-12-13T19:44:47.837Z,23.20
2018-12-13T19:47:48.302Z,23.20
2018-12-13T19:50:41.631Z,23.30
2018-12-13T19:53:37.843Z,23.30
2018-12-13T19:56:33.985Z,23.30
2018-12-13T19:59:30.029Z,23.40
2018-12-13T20:02:26.450Z,23.30
2018-12-13T20:05:22.885Z,23.30
2018-12-13T20:08:21.703Z,23.30
2018-12-13T20:11:15.451Z,23.20
2018-12-13T20:14:11.786Z,23.20
2018-12-13T20:17:08.120Z,23.20
2018-12-13T20:20:04.180Z,23.10
2018-12-13T20:23:00.282Z,23.10
2018-12-13T20:25:56.597Z,23.00
2018-12-13T20:28:52.316Z,23.00
2018-12-13T20:31:48.053Z,23.00
2018-12-13T20:34:45.019Z,23.00
2018-12-13T20:37:41.107Z,23.00
2018-12-13T20:40:37.369Z,22.90
2018-12-13T20:43:33.264Z,22.90
2018-12-13T20:46:29.332Z,22.90
2018-12-13T20:49:25.440Z,22.90
2018-12-13T20:52:21.467Z,22.90
2018-12-13T20:55:18.261Z,22.80
2018-12-13T20:58:14.649Z,22.80
2018-12-13T21:01:11.107Z,22.80
2018-12-13T21:04:07.503Z,22.80
2018-12-13T21:07:26.997Z,22.80
2018-12-13T21:10:23.636Z,22.80
2018-12-13T21:13:19.977Z,22.90
2018-12-13T21:16:15.936Z,22.90
2018-12-13T21:19:12.120Z,23.00
2018-12-13T21:22:07.951Z,23.00
2018-12-13T21:25:04.982Z,23.00
2018-12-13T21:28:01.244Z,23.00
2018-12-13T21:31:00.538Z,23.00
2018-12-13T21:33:56.892Z,22.90
2018-12-13T21:36:52.572Z,22.90
2018-12-13T21:39:49.550Z,22.90
2018-12-13T21:42:46.179Z,22.80
2018-12-13T21:45:42.152Z,22.80
2018-12-13T21:48:40.003Z,22.80
2018-12-13T21:51:35.888Z,22.70
2018-12-13T21:54:32.349Z,22.70
2018-12-13T21:57:31.101Z,22.70
2018-12-13T22:00:27.052Z,22.60
2018-12-13T22:03:23.554Z,22.60
2018-12-13T22:06:20.030Z,22.60
2018-12-13T22:09:16.471Z,22.60
2018-12-13T22:12:12.183Z,22.50
2018-12-13T22:15:08.771Z,22.50
2018-12-13T22:18:05.052Z,22.50
2018-12-13T22:21:00.816Z,22.50
2018-12-13T22:23:58.235Z,22.50
2018-12-13T22:26:54.879Z,22.50
2018-12-13T22:29:51.294Z,22.50
2018-12-13T22:32:47.322Z,22.50
2018-12-13T22:35:43.556Z,22.50
2018-12-13T22:38:39.640Z,22.60
2018-12-13T22:41:35.733Z,22.60
2018-12-13T22:44:32.239Z,22.50
2018-12-13T22:47:28.427Z,22.50
2018-12-13T22:50:24.762Z,22.50
2018-12-13T22:53:21.523Z,22.50
2018-12-13T22:56:18.001Z,22.50
2018-12-13T22:59:14.755Z,22.40
2018-12-13T23:02:10.979Z,22.40
2018-12-13T23:05:07.114Z,22.40
2018-12-13T23:08:03.459Z,22.40
2018-12-13T23:10:59.784Z,22.40
2018-12-13T23:13:55.932Z,22.40
2018-12-13T23:16:52.425Z,22.30
2018-12-13T23:19:48.650Z,22.30
2018-12-13T23:22:44.933Z,22.30
2018-12-13T23:25:41.862Z,22.30
2018-12-13T23:28:37.448Z,22.30
2018-12-13T23:31:33.518Z,22.30
2018-12-13T23:34:29.734Z,22.30
2018-12-13T23:37:25.981Z,22.30
2018-12-13T23:40:22.008Z,22.20
2018-12-13T23:43:18.401Z,22.20
2018-12-13T23:46:14.777Z,22.30
2018-12-13T23:49:11.923Z,22.30
2018-12-13T23:52:08.558Z,22.30
2018-12-13T23:55:04.872Z,22.30
2018-12-13T23:58:00.822Z,22.30
